Time;durP1;ratioP1;P1;durP2;ratioP2;P2;SDS_P1;SDS_P2;PMS_P1;PMS_P2;Temp;Humidity;BMP_temperature;BMP_pressure;BME280_temperature;BME280_humidity;BME280_pressure;Samples;Min_cycle;Max_cycle;Signal;HPM_P1;HPM_P2
2022/08/25 00:00:47;;;;;;;10.35;5.05;;;22.30;95.40;;;;;;5053708;28;20533;-72
2022/08/25 00:03:13;;;;;;;7.45;5.07;;;22.20;95.20;;;;;;5052768;28;20086;-71
2022/08/25 00:05:39;;;;;;;7.97;5.35;;;22.30;95.10;;;;;;5052769;28;20041;-72
2022/08/25 00:08:05;;;;;;;8.95;5.43;;;22.20;94.90;;;;;;5052845;28;20041;-72
2022/08/25 00:10:33;;;;;;;9.75;4.82;;;22.20;94.90;;;;;;5053618;28;20045;-72
2022/08/25 00:13:02;;;;;;;8.00;5.03;;;22.20;94.80;;;;;;5052470;28;20053;-72
2022/08/25 00:15:30;;;;;;;11.18;5.60;;;22.10;94.70;;;;;;5052454;28;20451;-72
2022/08/25 00:17:56;;;;;;;10.13;5.68;;;22.10;94.60;;;;;;5052412;28;20047;-72
2022/08/25 00:20:22;;;;;;;10.60;5.10;;;22.10;94.40;;;;;;5053567;28;20033;-72
2022/08/25 00:22:48;;;;;;;14.10;5.70;;;22.10;94.30;;;;;;5052348;28;20041;-72
2022/08/25 00:25:13;;;;;;;8.48;4.90;;;22.10;94.20;;;;;;5053539;28;20507;-72
2022/08/25 00:27:39;;;;;;;12.73;5.32;;;22.00;94.20;;;;;;5053437;28;20091;-72
2022/08/25 00:30:06;;;;;;;11.63;5.18;;;22.00;94.20;;;;;;5052171;28;20040;-72
2022/08/25 00:32:31;;;;;;;10.82;4.80;;;22.00;94.00;;;;;;5052082;28;20041;-72
2022/08/25 00:34:57;;;;;;;9.07;5.05;;;22.00;93.90;;;;;;5052432;28;20033;-72
2022/08/25 00:37:22;;;;;;;10.23;5.00;;;21.90;93.80;;;;;;5053260;28;20056;-72
2022/08/25 00:39:48;;;;;;;9.10;4.90;;;21.90;94.00;;;;;;5052035;28;20033;-72
2022/08/25 00:42:14;;;;;;;11.15;5.28;;;21.90;93.70;;;;;;5052039;28;20044;-72
2022/08/25 00:44:42;;;;;;;13.00;4.70;;;21.90;93.60;;;;;;5053395;28;20112;-72
2022/08/25 00:47:08;;;;;;;15.18;5.60;;;21.90;93.50;;;;;;5053036;28;20056;-72
2022/08/25 00:49:52;;;;;;;8.55;4.95;;;21.90;93.40;;;;;;5051576;28;20044;-72
2022/08/25 00:52:21;;;;;;;12.05;5.18;;;21.80;93.40;;;;;;5051760;28;20048;-72
2022/08/25 00:55:12;;;;;;;10.65;5.00;;;21.70;93.40;;;;;;5052887;28;20041;-72
2022/08/25 00:57:42;;;;;;;9.35;4.93;;;21.70;93.20;;;;;;5050852;28;20049;-72
2022/08/25 01:00:18;;;;;;;10.45;4.63;;;21.70;93.30;;;;;;5051394;28;20040;-72
2022/08/25 01:02:44;;;;;;;10.48;5.18;;;21.70;93.10;;;;;;5052897;28;20507;-72
2022/08/25 01:05:11;;;;;;;7.57;5.30;;;21.60;92.90;;;;;;5051546;28;20059;-72
2022/08/25 01:07:38;;;;;;;9.10;5.10;;;21.60;92.80;;;;;;5048674;28;20047;-72
2022/08/25 01:10:06;;;;;;;9.07;4.60;;;21.60;92.80;;;;;;5048813;28;20582;-71
2022/08/25 01:12:32;;;;;;;13.85;5.10;;;21.60;92.80;;;;;;5046845;28;20119;-71
2022/08/25 01:15:00;;;;;;;8.50;5.10;;;21.60;92.70;;;;;;5026426;28;20044;-71
2022/08/25 01:17:33;;;;;;;8.35;5.60;;;21.60;92.60;;;;;;5052541;28;20068;-71
2022/08/25 01:19:59;;;;;;;;;;;21.60;92.40;;;;;;5051449;28;20056;-71
2022/08/25 01:22:25;;;;;;;8.55;4.43;;;21.50;92.40;;;;;;5052690;28;19921;-71
2022/08/25 01:25:06;;;;;;;8.75;5.15;;;21.50;92.60;;;;;;5052549;28;20080;-71
2022/08/25 01:27:32;;;;;;;8.32;4.47;;;21.60;92.30;;;;;;5051105;28;20087;-71
2022/08/25 01:29:57;;;;;;;8.13;4.50;;;21.50;92.30;;;;;;5050803;28;20037;-71
2022/08/25 01:32:23;;;;;;;9.90;4.53;;;21.50;92.20;;;;;;5052124;28;20410;-71
2022/08/25 01:34:49;;;;;;;10.88;4.57;;;21.60;92.30;;;;;;5051317;28;20191;-71
2022/08/25 01:37:15;;;;;;;10.82;5.22;;;21.50;92.20;;;;;;5052327;28;20545;-71
2022/08/25 01:39:42;;;;;;;6.40;4.43;;;21.50;92.20;;;;;;5050607;28;20045;-71
2022/08/25 01:42:12;;;;;;;4.93;4.18;;;21.50;92.10;;;;;;5051160;28;20056;-71
2022/08/25 01:44:42;;;;;;;8.30;4.13;;;21.50;92.20;;;;;;5050800;28;20041;-71
2022/08/25 01:47:08;;;;;;;8.25;4.60;;;21.40;92.10;;;;;;5034211;28;20052;-71
2022/08/25 01:49:34;;;;;;;8.10;4.53;;;21.40;92.10;;;;;;5051904;28;20414;-71
2022/08/25 01:52:06;;;;;;;11.98;4.90;;;21.40;92.10;;;;;;5051962;28;20048;-71
2022/08/25 01:54:31;;;;;;;6.22;4.35;;;21.30;92.10;;;;;;5051940;28;20045;-71
2022/08/25 01:56:58;;;;;;;7.15;4.70;;;21.40;92.20;;;;;;5051905;28;20172;-71
2022/08/25 01:59:25;;;;;;;9.52;5.20;;;21.30;92.00;;;;;;5050289;28;20033;-71
2022/08/25 02:01:51;;;;;;;11.55;5.03;;;21.30;92.10;;;;;;5050642;28;20081;-71
2022/08/25 02:04:17;;;;;;;7.07;4.75;;;21.20;92.10;;;;;;5033970;28;20076;-71
2022/08/25 02:06:43;;;;;;;7.35;4.57;;;21.20;92.20;;;;;;5051842;28;20048;-71
2022/08/25 02:09:12;;;;;;;11.65;4.97;;;21.10;92.20;;;;;;5050295;28;20037;-71
2022/08/25 02:11:40;;;;;;;7.53;4.43;;;21.10;92.30;;;;;;5050648;28;20560;-71
2022/08/25 02:14:08;;;;;;;9.90;4.97;;;21.10;92.40;;;;;;5050616;28;20045;-71
2022/08/25 02:16:35;;;;;;;10.70;4.95;;;21.10;92.50;;;;;;5050543;28;20139;-71
2022/08/25 02:19:03;;;;;;;10.48;5.35;;;21.00;92.50;;;;;;5051597;28;20499;-71
2022/08/25 02:21:29;;;;;;;9.82;4.88;;;21.00;92.50;;;;;;5051407;28;20087;-71
2022/08/25 02:23:55;;;;;;;12.98;5.40;;;21.00;92.50;;;;;;5050314;28;20037;-71
2022/08/25 02:26:21;;;;;;;8.25;4.78;;;21.00;92.60;;;;;;5050410;28;20053;-71
2022/08/25 02:28:49;;;;;;;12.23;5.60;;;20.90;92.60;;;;;;5051738;28;20094;-71
2022/08/25 02:31:16;;;;;;;9.30;4.95;;;20.90;92.60;;;;;;5050020;28;20037;-71
2022/08/25 02:33:42;;;;;;;8.02;5.15;;;20.80;92.60;;;;;;5050146;28;20045;-71
2022/08/25 02:36:08;;;;;;;8.85;4.53;;;20.80;92.70;;;;;;5051376;28;20032;-71
2022/08/25 02:38:35;;;;;;;7.55;4.38;;;20.80;92.70;;;;;;5050430;28;20154;-71
2022/08/25 02:41:07;;;;;;;8.68;4.63;;;20.80;92.80;;;;;;5033144;28;20056;-71
2022/08/25 02:43:32;;;;;;;5.77;4.57;;;20.70;92.80;;;;;;5050494;28;20052;-71
2022/08/25 02:45:58;;;;;;;11.30;5.00;;;20.70;92.80;;;;;;5051279;28;20272;-71
2022/08/25 02:48:24;;;;;;;8.15;4.60;;;20.60;92.70;;;;;;5051399;28;20441;-71
2022/08/25 02:50:51;;;;;;;7.28;4.45;;;20.60;92.80;;;;;;5051142;28;20037;-71
2022/08/25 02:53:18;;;;;;;8.88;4.80;;;20.60;92.80;;;;;;5050025;28;20411;-71
2022/08/25 02:55:45;;;;;;;9.13;4.78;;;20.60;92.80;;;;;;5049821;28;20048;-71
2022/08/25 02:58:10;;;;;;;7.88;4.45;;;20.60;92.90;;;;;;5049720;28;20072;-71
2022/08/25 03:00:36;;;;;;;10.45;4.90;;;20.50;92.80;;;;;;5049692;28;20178;-71
2022/08/25 03:03:04;;;;;;;8.63;5.03;;;20.50;92.90;;;;;;5051067;28;20119;-71
2022/08/25 03:05:29;;;;;;;7.28;4.43;;;20.50;92.80;;;;;;5051906;28;20036;-71
2022/08/25 03:07:55;;;;;;;12.73;5.03;;;20.50;92.90;;;;;;5054949;28;20103;-71
2022/08/25 03:10:20;;;;;;;9.52;4.90;;;20.40;92.90;;;;;;5053431;28;20041;-71
2022/08/25 03:12:46;;;;;;;7.88;4.28;;;20.40;92.90;;;;;;5053581;28;20040;-71
2022/08/25 03:15:17;;;;;;;7.53;4.95;;;20.40;93.00;;;;;;5055147;28;20051;-71
2022/08/25 03:17:48;;;;;;;8.55;4.32;;;20.40;93.10;;;;;;5053624;28;20045;-71
2022/08/25 03:20:14;;;;;;;8.95;4.97;;;20.30;93.10;;;;;;5053553;28;20060;-71
2022/08/25 03:22:40;;;;;;;7.47;4.63;;;20.30;93.20;;;;;;5053532;28;20044;-71
2022/08/25 03:27:51;;;;;;;6.90;5.30;;;20.30;93.10;;;;;;5053435;28;20064;-71
2022/08/25 03:30:17;;;;;;;10.15;5.40;;;20.30;93.20;;;;;;5053091;28;20049;-71
2022/08/25 03:32:43;;;;;;;11.27;5.07;;;20.20;93.20;;;;;;5036869;28;20090;-71
2022/08/25 03:35:09;;;;;;;7.20;4.80;;;20.20;93.30;;;;;;5053381;28;20037;-71
2022/08/25 03:37:35;;;;;;;8.55;4.53;;;20.20;93.30;;;;;;5053182;28;20044;-71
2022/08/25 03:40:04;;;;;;;9.18;5.13;;;20.20;93.40;;;;;;5054190;28;20037;-71
2022/08/25 03:42:29;;;;;;;13.57;5.25;;;20.20;93.40;;;;;;5053218;28;20132;-71
2022/08/25 03:44:55;;;;;;;9.90;5.35;;;20.10;93.50;;;;;;5053014;28;20080;-71
2022/08/25 03:47:23;;;;;;;11.05;5.35;;;20.10;93.60;;;;;;5036214;28;20044;-71
2022/08/25 03:49:50;;;;;;;11.30;5.32;;;20.00;93.60;;;;;;5052647;28;20041;-72
2022/08/25 03:52:17;;;;;;;7.60;5.47;;;20.00;93.70;;;;;;5052974;28;20486;-71
2022/08/25 03:54:43;;;;;;;11.27;5.75;;;20.00;93.70;;;;;;5053055;28;20033;-71
2022/08/25 03:57:08;;;;;;;10.82;6.15;;;20.00;93.80;;;;;;5054128;28;20068;-71
2022/08/25 03:59:37;;;;;;;16.40;6.10;;;20.00;93.90;;;;;;5052807;28;20076;-71
2022/08/25 04:02:02;;;;;;;13.88;6.45;;;19.90;94.00;;;;;;5052815;28;20048;-71
2022/08/25 04:04:28;;;;;;;18.50;9.18;;;19.90;94.10;;;;;;5052605;28;20041;-71
2022/08/25 04:06:53;;;;;;;20.30;10.45;;;19.90;94.20;;;;;;5054048;28;20041;-71
2022/08/25 04:09:20;;;;;;;17.88;12.02;;;19.90;94.30;;;;;;5052376;28;20041;-71
2022/08/25 04:11:45;;;;;;;24.80;14.57;;;19.80;94.30;;;;;;5035937;28;20037;-71
2022/08/25 04:14:12;;;;;;;15.80;11.18;;;19.80;94.30;;;;;;5053797;28;20409;-71
2022/08/25 04:16:37;;;;;;;12.60;8.93;;;19.80;94.50;;;;;;5052257;28;20036;-71
2022/08/25 04:19:07;;;;;;;18.02;10.55;;;19.70;94.60;;;;;;5052310;28;20487;-71
2022/08/25 04:21:33;;;;;;;15.38;9.13;;;19.70;94.60;;;;;;5052141;28;20514;-71
2022/08/25 04:23:59;;;;;;;14.77;9.82;;;19.70;94.70;;;;;;5052593;28;20406;-71
2022/08/25 04:26:32;;;;;;;11.85;8.23;;;19.70;94.80;;;;;;5052169;28;20044;-71
2022/08/25 04:28:59;;;;;;;15.50;8.70;;;19.60;94.90;;;;;;5052175;28;20120;-71
2022/08/25 04:31:26;;;;;;;14.20;8.27;;;19.60;95.00;;;;;;5052098;28;20063;-71
2022/08/25 04:33:52;;;;;;;11.50;7.85;;;19.60;95.40;;;;;;5052099;28;20076;-71
2022/08/25 04:36:18;;;;;;;12.73;7.97;;;19.60;95.20;;;;;;5052288;28;20126;-71
2022/08/25 04:38:46;;;;;;;14.40;7.80;;;19.60;95.30;;;;;;5052155;28;20449;-71
2022/08/25 04:41:13;;;;;;;15.30;7.45;;;19.60;95.40;;;;;;5052970;28;20086;-71
2022/08/25 04:43:40;;;;;;;11.07;8.23;;;19.60;95.50;;;;;;5051958;28;20045;-71
2022/08/25 04:46:10;;;;;;;10.10;8.55;;;19.60;95.50;;;;;;5035368;28;20049;-71
2022/08/25 04:48:36;;;;;;;10.48;7.82;;;19.60;95.60;;;;;;5052256;28;20407;-71
2022/08/25 04:51:11;;;;;;;11.30;7.88;;;19.50;95.70;;;;;;5051542;28;20458;-71
2022/08/25 04:53:37;;;;;;;12.18;7.80;;;19.60;95.80;;;;;;5053253;28;20070;-71
2022/08/25 04:56:14;;;;;;;13.43;7.15;;;19.50;95.80;;;;;;5051826;28;20550;-71
2022/08/25 04:58:40;;;;;;;11.45;7.53;;;19.60;96.00;;;;;;5051825;28;20029;-70
2022/08/25 05:01:14;;;;;;;11.77;8.18;;;19.50;96.00;;;;;;5051570;28;20037;-71
2022/08/25 05:03:40;;;;;;;15.10;7.97;;;19.50;96.10;;;;;;5051630;28;20123;-71
2022/08/25 05:06:05;;;;;;;13.27;7.85;;;19.50;96.20;;;;;;5053006;28;20076;-71
2022/08/25 05:08:34;;;;;;;13.63;7.82;;;19.60;96.10;;;;;;5051679;28;20033;-71
2022/08/25 05:11:05;;;;;;;11.98;8.27;;;19.60;96.10;;;;;;5052356;28;20118;-71
2022/08/25 05:13:31;;;;;;;12.02;7.68;;;19.70;96.10;;;;;;5052607;28;20435;-71
2022/08/25 05:15:59;;;;;;;12.60;8.45;;;19.70;96.00;;;;;;5051230;28;20136;-71
2022/08/25 05:18:27;;;;;;;14.52;8.95;;;19.80;95.90;;;;;;5034710;28;20115;-71
2022/08/25 05:20:53;;;;;;;16.25;10.25;;;19.80;95.80;;;;;;5052242;28;20495;-71
2022/08/25 05:23:20;;;;;;;15.30;9.70;;;20.00;95.70;;;;;;5051172;28;20041;-71
2022/08/25 05:25:47;;;;;;;15.73;10.45;;;20.10;95.60;;;;;;5050909;28;20051;-71
2022/08/25 05:28:13;;;;;;;18.52;10.18;;;20.20;95.50;;;;;;5051956;28;20068;-71
2022/08/25 05:30:41;;;;;;;15.50;10.35;;;20.30;95.30;;;;;;5050830;28;20075;-71
2022/08/25 05:33:08;;;;;;;16.38;11.77;;;20.40;95.00;;;;;;5050884;28;20129;-71
2022/08/25 05:35:35;;;;;;;19.80;11.48;;;20.50;94.80;;;;;;5052342;28;20550;-71
2022/08/25 05:38:01;;;;;;;18.75;12.52;;;20.60;94.70;;;;;;5052041;28;20514;-71
2022/08/25 05:40:27;;;;;;;19.90;11.63;;;20.60;94.60;;;;;;5050641;28;20124;-71
2022/08/25 05:42:53;;;;;;;15.05;11.32;;;20.70;94.40;;;;;;5052286;28;20041;-71
2022/08/25 05:45:19;;;;;;;15.57;10.20;;;20.80;94.30;;;;;;5034235;28;20082;-71
2022/08/25 05:47:44;;;;;;;15.68;11.35;;;20.90;94.30;;;;;;5050625;28;20040;-71
2022/08/25 05:50:10;;;;;;;15.63;11.13;;;21.00;94.10;;;;;;5050510;28;20408;-71
2022/08/25 05:52:36;;;;;;;17.10;11.40;;;21.10;94.00;;;;;;5050526;28;20429;-71
2022/08/25 05:55:02;;;;;;;18.20;12.52;;;21.20;93.80;;;;;;5052124;28;20037;-71
2022/08/25 05:57:28;;;;;;;18.77;12.35;;;21.30;93.70;;;;;;5050610;28;20037;-71
2022/08/25 05:59:53;;;;;;;19.17;14.00;;;21.40;93.50;;;;;;5051685;28;20041;-71
2022/08/25 06:05:03;;;;;;;18.02;12.52;;;21.70;92.90;;;;;;5050745;28;20466;-71
2022/08/25 06:07:29;;;;;;;24.48;14.30;;;21.80;92.80;;;;;;5050315;28;20135;-71
2022/08/25 06:09:54;;;;;;;18.15;13.20;;;21.90;92.60;;;;;;5050323;28;20053;-72
2022/08/25 06:12:20;;;;;;;18.42;14.85;;;22.00;92.40;;;;;;5051638;28;20037;-74
2022/08/25 06:14:48;;;;;;;22.88;14.70;;;22.10;92.40;;;;;;5050410;28;20037;-71
2022/08/25 06:17:14;;;;;;;19.85;13.45;;;22.20;92.20;;;;;;5050365;28;20158;-71
2022/08/25 06:19:39;;;;;;;23.05;13.40;;;22.40;92.00;;;;;;5050059;28;20156;-71
2022/08/25 06:22:05;;;;;;;19.55;11.70;;;22.50;91.90;;;;;;5051430;28;20453;-71
2022/08/25 06:24:32;;;;;;;16.40;11.18;;;22.60;91.70;;;;;;5051708;28;20562;-71
2022/08/25 06:26:57;;;;;;;22.40;11.90;;;22.80;91.40;;;;;;5050487;28;20073;-73
2022/08/25 06:29:23;;;;;;;18.10;11.13;;;22.90;91.20;;;;;;5049937;28;20072;-71
2022/08/25 06:31:49;;;;;;;18.92;10.82;;;23.10;91.10;;;;;;5051382;28;20120;-71
2022/08/25 06:34:16;;;;;;;17.58;10.85;;;23.30;90.70;;;;;;5051466;28;20049;-71
2022/08/25 06:36:41;;;;;;;17.85;12.50;;;23.40;90.40;;;;;;5051374;28;20035;-71
2022/08/25 06:39:08;;;;;;;17.58;12.43;;;23.50;90.10;;;;;;5033443;28;20104;-71
2022/08/25 06:41:34;;;;;;;20.33;12.55;;;23.40;89.50;;;;;;5054013;28;20507;-74
2022/08/25 06:43:59;;;;;;;22.75;13.13;;;23.60;89.60;;;;;;5055515;28;20076;-72
2022/08/25 06:46:26;;;;;;;20.40;14.30;;;23.80;89.40;;;;;;5055218;28;20079;-73
2022/08/25 06:48:53;;;;;;;25.27;15.68;;;23.70;89.30;;;;;;5054686;28;20059;-71
2022/08/25 06:51:20;;;;;;;20.27;14.70;;;23.70;88.60;;;;;;5054935;28;20046;-71
2022/08/25 06:53:47;;;;;;;20.83;16.17;;;23.90;88.70;;;;;;5053792;28;20041;-71
2022/08/25 06:56:14;;;;;;;20.92;15.18;;;24.00;88.40;;;;;;5055355;28;20364;-71
2022/08/25 06:58:40;;;;;;;22.25;14.13;;;24.10;88.00;;;;;;5054062;28;20041;-71
2022/08/25 07:01:14;;;;;;;23.60;15.68;;;24.10;87.80;;;;;;5053656;28;20037;-71
2022/08/25 07:03:41;;;;;;;21.27;13.43;;;24.10;87.60;;;;;;5055047;28;20137;-73
2022/08/25 07:06:07;;;;;;;20.95;13.20;;;24.30;87.20;;;;;;5053780;28;20033;-71
2022/08/25 07:08:34;;;;;;;21.05;12.38;;;24.30;86.60;;;;;;5053842;28;20048;-71
2022/08/25 07:11:10;;;;;;;16.17;11.85;;;24.40;86.60;;;;;;5053676;28;20106;-71
2022/08/25 07:13:37;;;;;;;17.85;11.98;;;24.60;86.20;;;;;;5053793;28;20045;-73
2022/08/25 07:16:04;;;;;;;20.80;12.30;;;24.60;85.30;;;;;;5053454;28;20032;-71
2022/08/25 07:18:30;;;;;;;20.65;12.48;;;24.80;85.20;;;;;;5053807;28;20077;-70
2022/08/25 07:20:57;;;;;;;17.52;10.20;;;24.90;84.60;;;;;;5054707;28;20037;-71
2022/08/25 07:23:23;;;;;;;18.35;9.05;;;25.10;84.10;;;;;;5054915;28;20040;-71
2022/08/25 07:25:49;;;;;;;13.57;8.52;;;25.40;83.90;;;;;;5054670;28;20415;-71
2022/08/25 07:28:16;;;;;;;10.95;6.97;;;25.60;83.10;;;;;;5054603;28;20044;-71
2022/08/25 07:30:41;;;;;;;12.70;7.00;;;25.60;80.90;;;;;;5052994;28;20513;-71
2022/08/25 07:33:07;;;;;;;13.20;7.38;;;25.70;80.30;;;;;;5053235;28;20124;-70
2022/08/25 07:35:33;;;;;;;13.75;6.72;;;25.80;80.30;;;;;;5053338;28;20123;-71
2022/08/25 07:37:59;;;;;;;9.18;5.70;;;26.00;79.50;;;;;;5054506;28;20039;-71
2022/08/25 07:40:26;;;;;;;9.75;5.53;;;26.10;78.60;;;;;;5054260;28;20033;-71
2022/08/25 07:42:55;;;;;;;10.18;5.63;;;26.30;78.30;;;;;;5054447;28;20052;-71
2022/08/25 07:45:28;;;;;;;14.35;6.18;;;26.40;77.50;;;;;;5053094;28;20429;-71
2022/08/25 07:47:55;;;;;;;11.38;6.00;;;26.50;76.80;;;;;;5053252;28;20410;-71
2022/08/25 07:50:20;;;;;;;9.82;6.05;;;26.60;76.20;;;;;;5052144;28;20040;-71
2022/08/25 07:52:46;;;;;;;10.18;6.10;;;26.80;75.50;;;;;;5052905;28;20099;-70
2022/08/25 07:55:12;;;;;;;13.27;6.32;;;27.00;74.60;;;;;;5054241;28;20053;-71
2022/08/25 07:57:41;;;;;;;12.85;5.55;;;27.10;74.40;;;;;;5052708;28;20517;-71
2022/08/25 08:00:09;;;;;;;8.93;5.05;;;27.30;73.90;;;;;;5053983;28;20090;-71
2022/08/25 08:02:37;;;;;;;10.40;5.07;;;27.60;73.50;;;;;;5052813;28;20051;-71
2022/08/25 08:05:03;;;;;;;8.48;4.80;;;27.70;72.50;;;;;;5052776;28;20461;-71
2022/08/25 08:07:30;;;;;;;9.43;4.88;;;28.00;71.80;;;;;;5053896;28;20066;-71
2022/08/25 08:09:56;;;;;;;7.97;5.10;;;28.10;71.60;;;;;;5052662;28;20437;-72
2022/08/25 08:12:23;;;;;;;7.35;5.07;;;28.00;70.30;;;;;;5052067;28;20041;-72
2022/08/25 08:14:49;;;;;;;10.23;5.20;;;28.10;70.10;;;;;;5052223;28;20037;-72
2022/08/25 08:17:15;;;;;;;11.20;5.70;;;28.20;70.00;;;;;;5052273;28;20041;-72
2022/08/25 08:19:40;;;;;;;10.70;5.20;;;28.40;69.10;;;;;;5050362;28;20036;-72
2022/08/25 08:22:09;;;;;;;8.27;5.45;;;28.40;68.70;;;;;;5051960;28;20033;-71
2022/08/25 08:24:38;;;;;;;8.80;5.07;;;28.50;68.20;;;;;;5052158;28;20171;-72
2022/08/25 08:27:07;;;;;;;9.40;5.30;;;28.50;67.80;;;;;;5049498;28;20111;-72
2022/08/25 08:29:34;;;;;;;7.55;5.25;;;28.30;67.40;;;;;;5051690;28;20041;-71
2022/08/25 08:32:00;;;;;;;10.07;5.60;;;28.40;67.10;;;;;;5053593;28;20060;-71
2022/08/25 08:34:26;;;;;;;9.07;4.97;;;28.40;66.70;;;;;;5052205;28;20083;-71
2022/08/25 08:36:52;;;;;;;6.40;4.78;;;28.50;66.50;;;;;;5052328;28;20037;-71
2022/08/25 08:39:17;;;;;;;12.35;5.35;;;28.50;66.60;;;;;;5051946;28;20546;-71
2022/08/25 08:42:21;;;;;;;14.32;5.55;;;28.60;66.40;;;;;;5052300;28;20044;-71
2022/08/25 08:45:16;;;;;;;9.13;4.95;;;28.60;66.70;;;;;;4991519;28;20108;-71
2022/08/25 08:48:06;;;;;;;6.35;4.95;;;28.70;65.60;;;;;;4975217;28;20088;-71
2022/08/25 08:50:34;;;;;;;10.15;4.50;;;28.60;65.60;;;;;;5042190;28;20462;-71
2022/08/25 08:53:12;;;;;;;6.90;5.03;;;28.60;65.60;;;;;;5053095;28;20037;-71
2022/08/25 08:55:59;;;;;;;9.70;5.15;;;28.70;64.50;;;;;;5051754;28;20037;-71
2022/08/25 08:58:40;;;;;;;7.18;5.03;;;28.80;64.30;;;;;;5053236;28;20029;-71
2022/08/25 09:01:09;;;;;;;7.97;4.60;;;28.80;64.00;;;;;;5051398;28;20033;-71
2022/08/25 09:03:41;;;;;;;9.43;4.97;;;29.00;64.30;;;;;;5050754;28;20052;-71
2022/08/25 09:06:29;;;;;;;12.82;5.60;;;28.70;63.20;;;;;;5052883;28;20040;-71
2022/08/25 09:08:57;;;;;;;9.52;5.07;;;28.80;63.40;;;;;;5051696;28;20067;-71
2022/08/25 09:12:00;;;;;;;7.22;5.07;;;29.00;63.70;;;;;;5052742;28;20553;-72
2022/08/25 09:14:40;;;;;;;7.40;4.80;;;28.90;63.20;;;;;;5052708;28;20048;-71
2022/08/25 09:17:46;;;;;;;10.10;5.05;;;29.10;63.20;;;;;;5052537;28;20036;-71
2022/08/25 09:20:15;;;;;;;8.75;4.85;;;28.80;63.20;;;;;;5040227;28;20045;-71
2022/08/25 09:22:55;;;;;;;9.80;5.15;;;28.90;63.60;;;;;;5052511;28;20078;-71
2022/08/25 09:25:37;;;;;;;10.43;4.93;;;29.10;62.90;;;;;;5051269;28;20045;-71
2022/08/25 09:28:19;;;;;;;6.85;4.07;;;29.00;62.40;;;;;;5052313;28;20519;-71
2022/08/25 09:31:00;;;;;;;;;;;29.00;62.20;;;;;;5052677;28;20111;-71
2022/08/25 09:33:27;;;;;;;10.55;4.38;;;29.00;62.70;;;;;;5050985;28;20393;-71
2022/08/25 09:35:54;;;;;;;11.43;5.05;;;29.10;62.80;;;;;;5052585;28;20095;-71
2022/08/25 09:38:21;;;;;;;12.75;4.90;;;29.20;62.00;;;;;;5050451;28;20043;-71
2022/08/25 09:40:53;;;;;;;8.95;5.05;;;29.20;62.40;;;;;;5049653;28;20052;-71
2022/08/25 09:43:27;;;;;;;;;;;29.30;62.10;;;;;;5051301;28;20071;-71
2022/08/25 09:45:59;;;;;;;10.60;4.00;;;29.20;61.60;;;;;;5052081;28;19917;-72
2022/08/25 09:48:41;;;;;;;7.30;4.25;;;29.30;61.50;;;;;;5052216;28;20383;-71
2022/08/25 09:51:27;;;;;;;7.90;4.38;;;29.20;61.00;;;;;;5050676;28;20075;-71
2022/08/25 09:53:55;;;;;;;8.13;4.32;;;29.20;61.00;;;;;;5049970;28;20060;-71
2022/08/25 09:56:24;;;;;;;8.25;3.90;;;29.20;60.80;;;;;;5049902;28;20553;-71
2022/08/25 09:58:50;;;;;;;9.43;4.35;;;29.20;60.20;;;;;;5051564;28;20086;-71
2022/08/25 10:01:22;;;;;;;8.40;3.20;;;29.10;59.60;;;;;;5058454;22;20051;-69
2022/08/25 10:04:05;;;;;;;7.32;3.60;;;29.20;58.70;;;;;;5087527;28;20079;-68
2022/08/25 10:06:46;;;;;;;10.15;3.85;;;29.30;58.60;;;;;;5089277;28;20040;-68
2022/08/25 10:09:25;;;;;;;5.57;3.03;;;29.20;58.20;;;;;;5091616;28;20040;-68
2022/08/25 10:11:51;;;;;;;5.38;2.75;;;29.20;57.70;;;;;;5091755;28;20032;-68
2022/08/25 10:14:39;;;;;;;5.97;2.60;;;29.10;56.60;;;;;;5091703;28;20097;-68
2022/08/25 10:17:24;;;;;;;6.35;3.30;;;29.10;55.90;;;;;;5087195;28;20445;-68
2022/08/25 10:19:51;;;;;;;5.28;3.03;;;29.00;56.00;;;;;;5084532;28;20462;-68
2022/08/25 10:22:31;;;;;;;7.68;3.80;;;29.00;56.60;;;;;;5082148;28;20063;-68
2022/08/25 10:25:00;;;;;;;6.40;3.65;;;29.10;56.90;;;;;;5078143;28;20097;-68
2022/08/25 10:27:48;;;;;;;5.60;2.97;;;29.10;57.70;;;;;;5079642;28;20048;-68
2022/08/25 10:30:22;;;;;;;6.50;3.42;;;29.30;56.70;;;;;;5070980;28;20047;-68
2022/08/25 10:33:26;;;;;;;5.78;3.35;;;29.20;56.50;;;;;;5085108;28;20460;-68
2022/08/25 10:35:58;;;;;;;8.70;3.58;;;29.10;56.00;;;;;;5082330;28;20041;-69
2022/08/25 10:38:42;;;;;;;9.95;4.53;;;28.90;56.50;;;;;;5074110;28;20406;-68
2022/08/25 10:41:29;;;;;;;7.25;3.35;;;29.00;57.20;;;;;;5071306;28;20076;-70
2022/08/25 10:47:31;;;;;;;5.55;3.83;;;29.10;56.80;;;;;;5086917;28;20052;-69
2022/08/25 10:50:33;;;;;;;5.60;3.65;;;29.00;57.30;;;;;;5080816;28;20402;-69
2022/08/25 10:53:13;;;;;;;5.20;3.77;;;29.10;57.20;;;;;;5081861;28;20037;-69
2022/08/25 10:55:56;;;;;;;8.55;3.67;;;29.10;57.10;;;;;;5083648;28;20044;-67
2022/08/25 10:58:26;;;;;;;7.43;3.40;;;29.00;56.70;;;;;;5082162;28;20043;-67
2022/08/25 11:01:03;;;;;;;8.93;3.50;;;29.10;56.80;;;;;;5083333;28;20116;-66
2022/08/25 11:03:57;;;;;;;6.65;3.40;;;29.20;57.10;;;;;;5091403;28;20044;-67
2022/08/25 11:06:28;;;;;;;6.88;3.35;;;29.20;56.90;;;;;;5087382;28;20524;-67
2022/08/25 11:08:59;;;;;;;6.25;3.42;;;29.20;56.50;;;;;;5085891;28;20036;-67
2022/08/25 11:11:35;;;;;;;7.95;3.88;;;29.20;56.40;;;;;;5091043;28;20736;-67
2022/08/25 11:14:35;;;;;;;6.20;2.80;;;29.20;56.90;;;;;;5090265;28;20071;-67
2022/08/25 11:17:16;;;;;;;6.15;3.30;;;29.30;54.70;;;;;;5091518;28;20035;-67
2022/08/25 11:19:46;;;;;;;4.75;3.20;;;29.40;54.60;;;;;;5084185;28;20083;-67
2022/08/25 11:22:24;;;;;;;5.43;2.60;;;29.40;54.40;;;;;;5076906;28;20040;-67
2022/08/25 11:25:15;;;;;;;10.82;3.55;;;29.40;54.00;;;;;;5080191;28;20503;-68
2022/08/25 11:28:13;;;;;;;4.45;3.38;;;29.50;53.90;;;;;;5085731;28;20133;-68
2022/08/25 11:30:40;;;;;;;4.88;3.17;;;29.50;53.50;;;;;;5078768;28;20426;-68
2022/08/25 11:33:06;;;;;;;7.10;3.05;;;29.50;53.60;;;;;;5080769;28;20414;-67
2022/08/25 11:35:43;;;;;;;4.50;3.42;;;29.50;53.20;;;;;;5087012;28;20036;-67
2022/08/25 11:38:14;;;;;;;6.68;3.20;;;29.50;52.80;;;;;;5087899;28;20496;-67
2022/08/25 11:41:01;;;;;;;5.88;3.38;;;29.50;52.10;;;;;;5109772;28;20155;-67
2022/08/25 11:44:02;;;;;;;6.03;3.00;;;29.60;52.50;;;;;;5095445;28;20047;-67
2022/08/25 11:46:44;;;;;;;4.53;3.65;;;29.60;52.20;;;;;;5094649;28;20497;-67
2022/08/25 11:49:30;;;;;;;5.37;3.17;;;29.60;52.00;;;;;;5094618;28;20113;-67
2022/08/25 11:51:57;;;;;;;7.93;3.05;;;29.60;52.90;;;;;;5094360;28;20042;-67
2022/08/25 11:54:47;;;;;;;5.25;2.88;;;29.60;52.10;;;;;;5090724;28;20043;-68
2022/08/25 11:57:15;;;;;;;5.28;3.08;;;29.70;51.60;;;;;;5086684;28;20044;-68
2022/08/25 11:59:53;;;;;;;4.85;2.95;;;29.80;51.50;;;;;;5094131;28;20032;-67
2022/08/25 12:02:41;;;;;;;4.63;2.80;;;29.70;51.30;;;;;;5094130;28;20051;-68
2022/08/25 12:05:15;;;;;;;5.53;3.08;;;29.60;51.80;;;;;;5094497;28;20063;-67
2022/08/25 12:08:37;;;;;;;5.53;3.33;;;29.60;51.10;;;;;;5093010;28;20048;-67
2022/08/25 12:10:59;;;;;;;3.85;2.90;;;29.60;51.10;;;;;;5092606;28;20493;-68
2022/08/25 12:13:43;;;;;;;5.68;3.25;;;29.70;51.30;;;;;;5092875;28;20169;-67
2022/08/25 12:16:31;;;;;;;8.43;3.60;;;29.60;51.30;;;;;;5092925;28;20036;-67
2022/08/25 12:19:27;;;;;;;4.25;2.60;;;29.80;50.40;;;;;;5093909;28;20064;-67
2022/08/25 12:21:59;;;;;;;5.28;2.60;;;29.80;48.90;;;;;;5090088;28;20110;-67
2022/08/25 12:24:31;;;;;;;;;;;29.80;49.80;;;;;;5101007;28;20043;-67
2022/08/25 12:27:00;;;;;;;8.85;3.30;;;29.80;49.80;;;;;;5093901;28;19967;-67
2022/08/25 12:29:40;;;;;;;5.45;3.45;;;29.80;49.70;;;;;;5093486;28;20498;-67
2022/08/25 12:32:49;;;;;;;4.72;3.20;;;29.90;50.10;;;;;;5093953;28;20043;-68
2022/08/25 12:35:37;;;;;;;6.35;3.28;;;30.00;49.60;;;;;;5048558;28;20048;-67
2022/08/25 12:38:41;;;;;;;5.25;3.30;;;30.10;50.30;;;;;;5092656;28;20046;-67
2022/08/25 12:41:20;;;;;;;4.75;3.10;;;30.10;49.40;;;;;;5093523;28;20078;-67
2022/08/25 12:43:52;;;;;;;3.80;2.88;;;30.10;49.30;;;;;;5093648;28;20036;-67
2022/08/25 12:46:20;;;;;;;6.28;3.03;;;30.10;49.50;;;;;;5093806;28;20047;-67
2022/08/25 12:49:00;;;;;;;5.78;3.13;;;30.10;48.80;;;;;;5093753;28;20075;-67
2022/08/25 12:51:37;;;;;;;5.35;3.35;;;30.00;48.70;;;;;;5093310;28;20054;-67
2022/08/25 12:54:26;;;;;;;3.92;2.63;;;29.90;49.20;;;;;;5093243;28;20043;-68
2022/08/25 12:56:57;;;;;;;3.97;2.42;;;30.00;48.80;;;;;;5092978;28;20040;-67
2022/08/25 12:59:32;;;;;;;6.03;3.10;;;30.20;48.80;;;;;;5083433;28;20032;-67
2022/08/25 13:02:22;;;;;;;3.28;2.63;;;30.10;48.50;;;;;;5085088;28;20043;-67
2022/08/25 13:05:04;;;;;;;4.43;3.13;;;30.00;47.60;;;;;;5104881;28;20043;-67
2022/08/25 13:07:58;;;;;;;4.85;3.25;;;29.90;47.50;;;;;;5112224;28;20063;-68
2022/08/25 13:10:45;;;;;;;4.43;2.88;;;29.80;47.10;;;;;;5113151;28;20035;-67